Time;durP1;ratioP1;P1;durP2;ratioP2;P2;SDS_P1;SDS_P2;PMS_P1;PMS_P2;Temp;Humidity;BMP_temperature;BMP_pressure;BME280_temperature;BME280_humidity;BME280_pressure;Samples;Min_cycle;Max_cycle;Signal;HPM_P1;HPM_P2
2021/03/24 00:00:21;;;;;;;11.88;9.27;;;;;;;;;;5075272;28;20047;-61
2021/03/24 00:02:47;;;;;;;11.57;9.13;;;;;;;;;;5075385;28;20510;-61
2021/03/24 00:05:16;;;;;;;11.43;9.07;;;;;;;;;;5073117;28;20040;-61
2021/03/24 00:07:43;;;;;;;10.95;8.93;;;;;;;;;;5072641;28;20162;-61
2021/03/24 00:10:09;;;;;;;12.35;9.63;;;;;;;;;;5073948;28;20045;-61
2021/03/24 00:12:35;;;;;;;11.80;9.30;;;;;;;;;;5072833;28;20490;-61
2021/03/24 00:15:04;;;;;;;10.23;7.45;;;;;;;;;;5065578;28;20037;-61
2021/03/24 00:17:30;;;;;;;7.88;5.55;;;;;;;;;;5072252;28;20044;-60
2021/03/24 00:19:56;;;;;;;6.85;5.07;;;;;;;;;;5071573;28;20035;-61
2021/03/24 00:22:21;;;;;;;4.55;3.85;;;;;;;;;;5075409;28;20016;-61
2021/03/24 00:24:47;;;;;;;6.65;4.88;;;;;;;;;;5076054;28;20031;-61
2021/03/24 00:27:12;;;;;;;16.30;14.60;;;;;;;;;;5073392;28;20044;-61
2021/03/24 00:29:38;;;;;;;8.07;6.43;;;;;;;;;;5054659;28;20131;-61
2021/03/24 00:32:03;;;;;;;8.32;6.88;;;;;;;;;;5071826;28;20029;-60
2021/03/24 00:34:29;;;;;;;11.10;9.75;;;;;;;;;;5074429;28;20037;-61
2021/03/24 00:36:54;;;;;;;18.95;17.05;;;;;;;;;;5081347;28;20282;-61
2021/03/24 00:39:20;;;;;;;20.40;18.48;;;;;;;;;;5071802;28;20041;-61
2021/03/24 00:41:45;;;;;;;20.85;18.75;;;;;;;;;;5072481;28;20094;-61
2021/03/24 00:44:11;;;;;;;22.67;20.48;;;;;;;;;;5073423;28;20040;-61
2021/03/24 00:46:36;;;;;;;24.10;21.70;;;;;;;;;;5075210;28;20037;-61
2021/03/24 00:49:02;;;;;;;26.20;23.70;;;;;;;;;;5080431;28;20040;-61
2021/03/24 00:51:27;;;;;;;16.10;14.52;;;;;;;;;;5069941;28;20028;-61
2021/03/24 00:53:53;;;;;;;20.00;17.98;;;;;;;;;;5072488;28;20045;-60
2021/03/24 00:56:18;;;;;;;19.80;17.80;;;;;;;;;;5068990;28;20032;-61
2021/03/24 00:58:44;;;;;;;29.00;26.30;;;;;;;;;;5081101;28;20471;-61
2021/03/24 01:01:09;;;;;;;30.10;27.10;;;;;;;;;;5071013;28;20059;-61
2021/03/24 01:03:36;;;;;;;23.90;21.50;;;;;;;;;;5071503;28;20505;-61
2021/03/24 01:06:02;;;;;;;27.52;24.73;;;;;;;;;;5071654;28;20033;-61
2021/03/24 01:08:27;;;;;;;24.85;22.45;;;;;;;;;;5071696;28;20099;-61
2021/03/24 01:10:54;;;;;;;22.15;19.98;;;;;;;;;;5072632;28;20051;-61
2021/03/24 01:13:20;;;;;;;30.60;27.70;;;;;;;;;;5072355;28;20514;-61
2021/03/24 01:15:45;;;;;;;32.83;29.63;;;;;;;;;;5072322;28;20036;-61
2021/03/24 01:18:11;;;;;;;24.30;22.00;;;;;;;;;;5073098;28;20107;-61
2021/03/24 01:20:37;;;;;;;23.25;21.05;;;;;;;;;;5073587;28;20116;-61
2021/03/24 01:23:03;;;;;;;32.10;28.98;;;;;;;;;;5063965;28;20063;-61
2021/03/24 01:25:28;;;;;;;34.30;31.00;;;;;;;;;;5073324;28;20403;-61
2021/03/24 01:27:54;;;;;;;25.67;23.27;;;;;;;;;;5073016;28;20048;-61
2021/03/24 01:30:21;;;;;;;25.73;23.23;;;;;;;;;;5071134;28;20041;-60
2021/03/24 01:32:46;;;;;;;36.33;32.92;;;;;;;;;;5072240;28;20102;-61
2021/03/24 01:35:13;;;;;;;35.72;32.33;;;;;;;;;;5068807;28;20091;-61
2021/03/24 01:37:39;;;;;;;35.83;32.42;;;;;;;;;;5070590;28;20076;-61
2021/03/24 01:40:10;;;;;;;33.63;30.42;;;;;;;;;;5070905;28;20040;-61
2021/03/24 01:42:35;;;;;;;33.83;30.58;;;;;;;;;;5070860;28;20960;-61
2021/03/24 01:45:17;;;;;;;33.78;30.63;;;;;;;;;;5074011;28;20082;-61
2021/03/24 01:47:43;;;;;;;33.30;30.20;;;;;;;;;;5072632;28;20037;-61
2021/03/24 01:50:17;;;;;;;34.92;31.63;;;;;;;;;;5068866;28;20052;-61
2021/03/24 01:52:43;;;;;;;34.20;30.90;;;;;;;;;;5075875;28;20822;-61
2021/03/24 01:55:09;;;;;;;33.10;29.92;;;;;;;;;;5056086;28;20032;-61
2021/03/24 01:57:35;;;;;;;34.35;31.13;;;;;;;;;;5072582;28;20028;-60
2021/03/24 02:00:00;;;;;;;36.70;33.22;;;;;;;;;;5056735;28;20041;-61
2021/03/24 02:02:31;;;;;;;10.55;8.82;;;;;;;;;;5067554;28;20033;-61
2021/03/24 02:04:57;;;;;;;25.27;22.77;;;;;;;;;;5076229;28;20094;-60
2021/03/24 02:07:51;;;;;;;8.20;6.40;;;;;;;;;;5072448;28;20578;-60
2021/03/24 02:10:55;;;;;;;7.70;6.45;;;;;;;;;;5063931;28;20057;-61
2021/03/24 02:13:38;;;;;;;10.02;7.55;;;;;;;;;;5073783;28;20045;-61
2021/03/24 02:16:15;;;;;;;7.40;5.93;;;;;;;;;;5057733;28;20033;-62
2021/03/24 02:18:41;;;;;;;9.10;7.25;;;;;;;;;;5060559;28;20043;-61
2021/03/24 02:21:18;;;;;;;9.32;7.18;;;;;;;;;;5076781;28;20031;-60
2021/03/24 02:23:51;;;;;;;8.82;6.80;;;;;;;;;;5056100;28;20032;-60
2021/03/24 02:26:48;;;;;;;8.00;6.10;;;;;;;;;;5058075;28;20074;-61
2021/03/24 02:29:17;;;;;;;5.43;4.30;;;;;;;;;;5079824;28;20542;-61
2021/03/24 02:31:42;;;;;;;5.63;4.32;;;;;;;;;;5066624;28;20500;-60
2021/03/24 02:34:10;;;;;;;8.25;6.95;;;;;;;;;;5056108;28;20041;-60
2021/03/24 02:36:36;;;;;;;11.52;10.20;;;;;;;;;;5041399;28;20032;-61
2021/03/24 02:39:04;;;;;;;24.58;22.27;;;;;;;;;;5075374;28;20487;-61
2021/03/24 02:41:30;;;;;;;29.73;26.83;;;;;;;;;;5058021;28;20047;-61
2021/03/24 02:43:55;;;;;;;31.35;28.42;;;;;;;;;;5057411;28;20387;-61
2021/03/24 02:46:21;;;;;;;32.45;29.45;;;;;;;;;;5056656;28;20028;-61
2021/03/24 02:48:46;;;;;;;20.25;18.35;;;;;;;;;;5072075;28;20078;-61
2021/03/24 02:51:22;;;;;;;22.83;20.50;;;;;;;;;;5044146;28;20087;-60
2021/03/24 02:53:48;;;;;;;9.73;8.27;;;;;;;;;;5072021;28;20041;-60
2021/03/24 02:56:13;;;;;;;20.63;18.60;;;;;;;;;;5060547;28;20033;-60
2021/03/24 02:58:39;;;;;;;31.33;28.40;;;;;;;;;;5074586;28;20078;-61
2021/03/24 03:01:07;;;;;;;30.48;27.48;;;;;;;;;;5073093;28;20399;-61
2021/03/24 03:03:36;;;;;;;18.35;16.45;;;;;;;;;;5057096;28;21525;-60
2021/03/24 03:06:02;;;;;;;9.05;8.00;;;;;;;;;;5042920;28;20598;-60
2021/03/24 03:08:30;;;;;;;9.13;6.90;;;;;;;;;;5072387;28;20047;-60
2021/03/24 03:11:02;;;;;;;6.57;5.43;;;;;;;;;;5048364;28;20547;-61
2021/03/24 03:13:39;;;;;;;6.18;4.80;;;;;;;;;;5056189;28;20083;-61
2021/03/24 03:16:11;;;;;;;6.53;4.78;;;;;;;;;;5055875;28;20053;-61
2021/03/24 03:18:36;;;;;;;9.10;7.70;;;;;;;;;;5058205;28;21169;-60
2021/03/24 03:21:11;;;;;;;14.80;13.38;;;;;;;;;;5077690;28;20037;-61
2021/03/24 03:23:36;;;;;;;18.48;16.67;;;;;;;;;;5064854;28;20039;-61
2021/03/24 03:26:11;;;;;;;32.45;29.45;;;;;;;;;;5055115;28;20028;-61
2021/03/24 03:28:37;;;;;;;29.15;26.27;;;;;;;;;;5073563;28;20060;-60
2021/03/24 03:31:04;;;;;;;10.07;8.32;;;;;;;;;;5074100;28;20045;-61
2021/03/24 03:33:32;;;;;;;9.55;7.30;;;;;;;;;;5056672;28;20081;-60
2021/03/24 03:35:58;;;;;;;8.80;6.63;;;;;;;;;;5056045;28;20037;-60
2021/03/24 03:38:24;;;;;;;6.53;4.85;;;;;;;;;;5073050;28;20535;-60
2021/03/24 03:40:50;;;;;;;6.78;5.38;;;;;;;;;;5056656;28;20041;-60
2021/03/24 03:43:17;;;;;;;13.18;11.77;;;;;;;;;;5073102;28;20642;-61
2021/03/24 03:45:44;;;;;;;24.92;22.52;;;;;;;;;;5050882;28;20044;-61
2021/03/24 03:48:10;;;;;;;21.27;19.25;;;;;;;;;;5070697;28;20128;-61
2021/03/24 03:50:36;;;;;;;19.33;17.45;;;;;;;;;;5071111;28;20045;-61
2021/03/24 03:53:23;;;;;;;35.25;31.95;;;;;;;;;;5074112;28;20391;-61
2021/03/24 03:56:06;;;;;;;35.83;32.33;;;;;;;;;;5079186;28;20045;-61
2021/03/24 03:58:48;;;;;;;20.73;18.63;;;;;;;;;;5074157;28;20084;-60
2021/03/24 04:01:34;;;;;;;33.10;29.90;;;;;;;;;;5076056;28;20544;-62
2021/03/24 04:04:10;;;;;;;36.40;33.00;;;;;;;;;;5074005;28;20044;-60
2021/03/24 04:06:55;;;;;;;35.38;31.90;;;;;;;;;;5056386;28;20078;-61
2021/03/24 04:09:20;;;;;;;37.47;33.88;;;;;;;;;;5071887;28;20037;-61
2021/03/24 04:11:50;;;;;;;37.42;33.85;;;;;;;;;;5055146;28;20044;-62
2021/03/24 04:14:18;;;;;;;8.95;7.03;;;;;;;;;;5056708;28;20132;-61
2021/03/24 04:16:44;;;;;;;20.92;18.92;;;;;;;;;;5077047;28;20036;-61
2021/03/24 04:19:09;;;;;;;36.63;33.13;;;;;;;;;;5041637;28;20039;-60
2021/03/24 04:21:37;;;;;;;38.00;34.30;;;;;;;;;;5070091;28;20067;-61
2021/03/24 04:24:08;;;;;;;37.30;33.70;;;;;;;;;;5058241;28;20035;-60
2021/03/24 04:26:45;;;;;;;39.63;35.88;;;;;;;;;;5063778;28;20024;-61
2021/03/24 04:29:18;;;;;;;41.25;37.33;;;;;;;;;;5056710;28;20075;-61
2021/03/24 04:31:50;;;;;;;41.55;37.42;;;;;;;;;;5065665;28;20079;-60
2021/03/24 04:34:15;;;;;;;40.30;36.45;;;;;;;;;;5049318;28;20044;-60
2021/03/24 04:36:44;;;;;;;40.45;36.75;;;;;;;;;;5071356;28;20111;-60
2021/03/24 04:39:29;;;;;;;20.80;18.80;;;;;;;;;;5064821;28;20033;-61
2021/03/24 04:41:54;;;;;;;37.85;34.17;;;;;;;;;;5054904;28;20153;-60
2021/03/24 04:44:24;;;;;;;38.33;34.75;;;;;;;;;;5072292;28;20044;-61
2021/03/24 04:46:50;;;;;;;39.80;35.90;;;;;;;;;;5057828;28;20037;-61
2021/03/24 04:49:21;;;;;;;38.17;34.47;;;;;;;;;;5057118;28;20939;-60
2021/03/24 04:51:46;;;;;;;37.60;33.95;;;;;;;;;;5057463;28;20500;-61
2021/03/24 04:54:20;;;;;;;41.72;37.63;;;;;;;;;;5070237;28;20044;-61
2021/03/24 04:56:49;;;;;;;39.13;35.40;;;;;;;;;;5048400;28;20039;-60
2021/03/24 04:59:20;;;;;;;41.33;37.25;;;;;;;;;;5053304;28;20033;-61
2021/03/24 05:01:50;;;;;;;40.55;36.65;;;;;;;;;;5055327;28;20033;-61
2021/03/24 05:04:26;;;;;;;40.30;36.42;;;;;;;;;;5056878;28;20036;-61
2021/03/24 05:06:54;;;;;;;40.83;36.92;;;;;;;;;;5073628;28;20507;-60
2021/03/24 05:09:20;;;;;;;39.67;35.90;;;;;;;;;;5041683;28;20044;-60
2021/03/24 05:11:55;;;;;;;41.80;37.80;;;;;;;;;;5071232;28;20442;-60
2021/03/24 05:15:01;;;;;;;42.22;38.08;;;;;;;;;;5030070;28;20858;-61
2021/03/24 05:17:34;;;;;;;43.63;39.33;;;;;;;;;;5072257;28;20045;-61
2021/03/24 05:20:02;;;;;;;42.58;38.50;;;;;;;;;;5053515;28;20037;-60
2021/03/24 05:22:54;;;;;;;41.85;37.75;;;;;;;;;;5054942;28;20120;-61
2021/03/24 05:25:32;;;;;;;42.05;37.95;;;;;;;;;;5070229;28;20060;-60
2021/03/24 05:28:10;;;;;;;26.88;24.25;;;;;;;;;;5071417;28;20056;-60
2021/03/24 05:30:37;;;;;;;35.88;32.38;;;;;;;;;;5058921;28;20041;-60
2021/03/24 05:33:20;;;;;;;43.03;38.83;;;;;;;;;;5057940;28;20384;-61
2021/03/24 05:35:51;;;;;;;41.25;37.33;;;;;;;;;;5058817;28;20032;-60
2021/03/24 05:38:29;;;;;;;43.35;39.20;;;;;;;;;;5074526;28;20507;-61
2021/03/24 05:41:28;;;;;;;41.70;37.50;;;;;;;;;;5073979;28;20063;-61
2021/03/24 05:44:31;;;;;;;43.67;39.47;;;;;;;;;;5073572;28;20095;-60
2021/03/24 05:47:08;;;;;;;22.38;20.13;;;;;;;;;;5073726;28;20151;-61
2021/03/24 05:49:56;;;;;;;42.78;38.65;;;;;;;;;;5074019;28;20044;-60
2021/03/24 05:52:36;;;;;;;42.33;38.28;;;;;;;;;;5063997;28;20114;-60
2021/03/24 05:55:05;;;;;;;25.75;23.15;;;;;;;;;;5058180;28;20041;-60
2021/03/24 05:58:05;;;;;;;41.20;37.30;;;;;;;;;;5073573;28;20524;-61
2021/03/24 06:01:07;;;;;;;44.83;40.58;;;;;;;;;;5081379;28;20049;-61
2021/03/24 06:03:52;;;;;;;45.60;41.17;;;;;;;;;;5080623;28;20833;-61
2021/03/24 06:06:36;;;;;;;44.97;40.67;;;;;;;;;;5073214;28;20295;-60
2021/03/24 06:09:23;;;;;;;29.95;27.05;;;;;;;;;;5076207;28;20037;-60
2021/03/24 06:12:09;;;;;;;35.58;32.08;;;;;;;;;;5075060;28;20044;-61
2021/03/24 06:14:39;;;;;;;44.85;40.50;;;;;;;;;;5075161;28;20518;-61
2021/03/24 06:17:10;;;;;;;44.83;40.58;;;;;;;;;;5065398;28;20115;-61
2021/03/24 06:19:48;;;;;;;43.63;39.38;;;;;;;;;;5074404;28;20033;-60
2021/03/24 06:22:46;;;;;;;44.47;40.17;;;;;;;;;;5074019;28;20036;-60
2021/03/24 06:25:30;;;;;;;44.97;40.67;;;;;;;;;;5073008;28;20096;-61
2021/03/24 06:28:04;;;;;;;44.88;40.55;;;;;;;;;;5075758;28;20078;-61
2021/03/24 06:30:45;;;;;;;46.13;41.67;;;;;;;;;;5066269;28;20083;-61
2021/03/24 06:33:33;;;;;;;47.63;43.03;;;;;;;;;;5074730;28;20458;-60
2021/03/24 06:36:09;;;;;;;47.17;42.58;;;;;;;;;;5076579;28;21322;-61
2021/03/24 06:38:57;;;;;;;44.70;40.35;;;;;;;;;;5074720;28;20090;-61
2021/03/24 06:41:56;;;;;;;44.95;40.55;;;;;;;;;;5072831;28;20609;-60
2021/03/24 06:44:32;;;;;;;43.03;38.75;;;;;;;;;;5075121;28;20171;-63
2021/03/24 06:47:03;;;;;;;44.22;40.03;;;;;;;;;;5074912;28;20067;-61
2021/03/24 06:49:47;;;;;;;46.33;41.75;;;;;;;;;;5072591;28;20525;-60
2021/03/24 06:52:35;;;;;;;47.88;43.08;;;;;;;;;;5077121;28;20032;-61
2021/03/24 06:55:27;;;;;;;46.30;41.78;;;;;;;;;;5071807;28;20494;-60
2021/03/24 06:58:11;;;;;;;45.25;40.85;;;;;;;;;;5073759;28;20033;-60
2021/03/24 07:00:43;;;;;;;44.53;40.22;;;;;;;;;;5072513;28;20070;-60
2021/03/24 07:03:27;;;;;;;45.30;40.90;;;;;;;;;;5075459;28;20036;-60
2021/03/24 07:06:20;;;;;;;45.72;41.33;;;;;;;;;;5075313;28;20106;-60
2021/03/24 07:09:13;;;;;;;46.95;42.45;;;;;;;;;;5082309;28;20044;-60
2021/03/24 07:11:53;;;;;;;47.15;42.60;;;;;;;;;;5074218;28;20048;-60
2021/03/24 07:14:40;;;;;;;45.40;41.00;;;;;;;;;;5069203;28;20111;-61
2021/03/24 07:17:30;;;;;;;48.80;44.10;;;;;;;;;;5073309;28;20406;-60
2021/03/24 07:20:27;;;;;;;40.30;36.47;;;;;;;;;;5075287;28;20082;-61
2021/03/24 07:23:26;;;;;;;7.13;5.70;;;;;;;;;;5074712;28;20063;-60
2021/03/24 07:26:00;;;;;;;9.40;8.00;;;;;;;;;;5074333;28;20127;-60
2021/03/24 07:28:44;;;;;;;9.38;7.63;;;;;;;;;;5075668;28;20029;-59
2021/03/24 07:31:29;;;;;;;10.50;8.88;;;;;;;;;;5073334;28;20798;-58
2021/03/24 07:34:01;;;;;;;10.75;9.18;;;;;;;;;;5055422;28;20190;-59
2021/03/24 07:36:29;;;;;;;;;;;;;;;;;;5073357;28;20828;-59
2021/03/24 07:39:10;;;;;;;11.65;10.15;;;;;;;;;;5072774;28;19916;-59
2021/03/24 07:42:13;;;;;;;11.57;10.38;;;;;;;;;;5072956;28;20499;-59
2021/03/24 07:45:32;;;;;;;11.63;10.43;;;;;;;;;;5076418;28;20032;-59
2021/03/24 07:48:16;;;;;;;11.88;10.57;;;;;;;;;;5073119;28;20795;-59
2021/03/24 07:50:56;;;;;;;12.73;11.02;;;;;;;;;;5075196;28;20511;-59
2021/03/24 07:53:30;;;;;;;13.35;9.38;;;;;;;;;;5063622;28;20086;-58
2021/03/24 07:56:09;;;;;;;11.02;8.82;;;;;;;;;;5071156;28;20035;-60
2021/03/24 07:58:34;;;;;;;13.32;11.93;;;;;;;;;;5082989;28;20033;-59
2021/03/24 08:01:13;;;;;;;13.35;11.95;;;;;;;;;;5074347;28;20036;-59
2021/03/24 08:04:03;;;;;;;15.00;12.88;;;;;;;;;;5073033;28;20040;-59
2021/03/24 08:06:38;;;;;;;14.20;12.70;;;;;;;;;;5070111;28;20033;-59
2021/03/24 08:09:19;;;;;;;13.60;12.00;;;;;;;;;;5073510;28;20033;-60
2021/03/24 08:11:59;;;;;;;14.85;13.25;;;;;;;;;;5072196;28;20037;-59
2021/03/24 08:14:56;;;;;;;12.80;11.38;;;;;;;;;;5074926;28;20041;-60
2021/03/24 08:17:30;;;;;;;14.48;12.98;;;;;;;;;;5074584;28;20040;-60
2021/03/24 08:20:16;;;;;;;10.82;7.50;;;;;;;;;;5075238;28;20029;-60
2021/03/24 08:22:50;;;;;;;11.90;9.55;;;;;;;;;;5073833;28;20036;-60
2021/03/24 08:25:22;;;;;;;10.98;8.93;;;;;;;;;;5071326;28;20036;-59
2021/03/24 08:27:56;;;;;;;11.32;9.02;;;;;;;;;;5071464;28;20119;-60
2021/03/24 08:30:28;;;;;;;11.27;8.95;;;;;;;;;;5056870;28;20091;-60
2021/03/24 08:33:27;;;;;;;11.55;8.85;;;;;;;;;;5056079;28;20044;-60
2021/03/24 08:36:06;;;;;;;11.38;8.43;;;;;;;;;;5072685;28;20037;-60
2021/03/24 08:38:54;;;;;;;13.45;10.05;;;;;;;;;;5075999;28;20861;-60
2021/03/24 08:41:50;;;;;;;10.88;8.52;;;;;;;;;;5071395;28;20495;-60
2021/03/24 08:44:54;;;;;;;11.38;8.98;;;;;;;;;;5073953;28;20037;-59
2021/03/24 08:47:41;;;;;;;11.02;8.45;;;;;;;;;;5071260;28;20512;-60
2021/03/24 08:50:20;;;;;;;12.13;8.75;;;;;;;;;;5072927;28;20049;-65
2021/03/24 08:53:00;;;;;;;11.93;8.75;;;;;;;;;;5058535;28;20041;-61
2021/03/24 08:55:44;;;;;;;11.70;8.95;;;;;;;;;;5080657;28;20459;-61
2021/03/24 08:58:09;;;;;;;12.43;9.45;;;;;;;;;;5073327;28;20045;-59
2021/03/24 09:00:58;;;;;;;12.05;9.07;;;;;;;;;;5072712;28;20060;-65
2021/03/24 09:03:46;;;;;;;11.95;9.30;;;;;;;;;;5055339;28;20040;-62
2021/03/24 09:06:56;;;;;;;13.65;12.25;;;;;;;;;;5078399;28;20787;-62
2021/03/24 09:09:28;;;;;;;13.40;12.00;;;;;;;;;;5075322;28;20045;-62
2021/03/24 09:12:01;;;;;;;11.77;9.05;;;;;;;;;;5076335;28;20407;-61
2021/03/24 09:14:50;;;;;;;13.45;9.60;;;;;;;;;;5078314;28;21467;-62
2021/03/24 09:17:42;;;;;;;12.68;9.48;;;;;;;;;;5076201;28;20503;-60
2021/03/24 09:20:11;;;;;;;13.05;9.75;;;;;;;;;;5074439;28;20119;-61
2021/03/24 09:23:15;;;;;;;13.05;11.10;;;;;;;;;;5075465;28;20120;-61
2021/03/24 09:25:47;;;;;;;15.00;10.13;;;;;;;;;;5071323;28;20040;-62
2021/03/24 09:28:50;;;;;;;12.82;9.63;;;;;;;;;;5076303;28;20520;-61
2021/03/24 09:31:29;;;;;;;12.15;10.55;;;;;;;;;;5076610;28;20124;-61
2021/03/24 09:34:23;;;;;;;13.40;10.57;;;;;;;;;;5076133;28;20123;-61
2021/03/24 09:36:59;;;;;;;13.07;10.80;;;;;;;;;;5076548;28;20096;-61
2021/03/24 09:39:34;;;;;;;11.52;9.50;;;;;;;;;;5067581;28;20044;-62
2021/03/24 09:42:04;;;;;;;14.35;11.15;;;;;;;;;;5060265;28;20120;-61
2021/03/24 09:44:46;;;;;;;12.35;10.52;;;;;;;;;;5075711;28;20033;-62
2021/03/24 09:47:31;;;;;;;;;;;;;;;;;;5061485;28;20894;-61
2021/03/24 09:50:09;;;;;;;12.82;10.48;;;;;;;;;;5074360;28;19929;-61
2021/03/24 09:52:52;;;;;;;11.57;10.05;;;;;;;;;;5074917;28;20082;-61
2021/03/24 09:55:25;;;;;;;11.95;10.45;;;;;;;;;;5075998;28;20128;-62
2021/03/24 09:58:11;;;;;;;14.48;10.32;;;;;;;;;;5075465;28;20414;-61
2021/03/24 10:00:47;;;;;;;11.20;9.73;;;;;;;;;;5075910;28;20064;-61
2021/03/24 10:03:43;;;;;;;11.50;10.20;;;;;;;;;;5058533;28;20033;-61
2021/03/24 10:06:24;;;;;;;14.43;10.40;;;;;;;;;;5077716;28;20032;-61
2021/03/24 10:09:11;;;;;;;16.10;11.82;;;;;;;;;;5075121;28;20041;-62
2021/03/24 10:12:03;;;;;;;10.48;9.15;;;;;;;;;;5073272;28;20049;-62
2021/03/24 10:14:32;;;;;;;13.82;9.80;;;;;;;;;;5043397;28;20043;-61
2021/03/24 10:16:59;;;;;;;11.82;9.10;;;;;;;;;;5072532;28;20037;-61
2021/03/24 10:19:35;;;;;;;15.25;9.52;;;;;;;;;;5076477;28;20033;-62
2021/03/24 10:22:20;;;;;;;11.10;9.38;;;;;;;;;;5076034;28;20033;-61
2021/03/24 10:24:50;;;;;;;11.52;9.20;;;;;;;;;;5060900;28;20075;-62
2021/03/24 10:27:18;;;;;;;10.77;9.18;;;;;;;;;;5061026;28;20181;-61
2021/03/24 10:29:49;;;;;;;10.85;9.07;;;;;;;;;;5057022;28;20043;-61
2021/03/24 10:32:28;;;;;;;11.10;8.88;;;;;;;;;;5058795;28;20506;-60
2021/03/24 10:35:00;;;;;;;11.05;8.93;;;;;;;;;;5056833;28;20029;-61
2021/03/24 10:37:54;;;;;;;11.65;9.15;;;;;;;;;;5072449;28;20060;-62
2021/03/24 10:40:32;;;;;;;13.75;8.48;;;;;;;;;;5074316;28;20041;-62
2021/03/24 10:43:03;;;;;;;11.05;8.48;;;;;;;;;;5041279;28;20565;-61
2021/03/24 10:45:43;;;;;;;10.23;8.25;;;;;;;;;;5071675;28;20044;-61
2021/03/24 10:48:20;;;;;;;9.32;7.60;;;;;;;;;;5076239;28;20641;-61
2021/03/24 10:51:10;;;;;;;10.32;7.07;;;;;;;;;;5072935;28;20076;-61
2021/03/24 10:53:36;;;;;;;9.48;7.30;;;;;;;;;;5071997;28;20129;-67
2021/03/24 10:56:10;;;;;;;8.68;7.20;;;;;;;;;;5073693;28;20044;-62
2021/03/24 10:58:50;;;;;;;10.60;7.20;;;;;;;;;;5074155;28;20037;-62
2021/03/24 11:01:36;;;;;;;9.30;7.05;;;;;;;;;;5077263;28;20041;-61
2021/03/24 11:04:04;;;;;;;8.80;6.50;;;;;;;;;;5060206;28;20503;-62
2021/03/24 11:06:36;;;;;;;8.38;6.68;;;;;;;;;;5072701;28;20072;-62
2021/03/24 11:09:08;;;;;;;;;;;;;;;;;;5075950;28;20036;-61
2021/03/24 11:11:50;;;;;;;9.35;7.10;;;;;;;;;;5073710;28;19921;-57
2021/03/24 11:14:23;;;;;;;9.57;6.90;;;;;;;;;;5076021;28;20602;-63
2021/03/24 11:16:50;;;;;;;10.38;7.47;;;;;;;;;;5074748;28;20028;-63
2021/03/24 11:19:32;;;;;;;14.27;11.40;;;;;;;;;;5073271;28;20033;-64
2021/03/24 11:22:00;;;;;;;;;;;;;;;;;;5075946;28;20513;-62
2021/03/24 11:24:30;;;;;;;15.35;11.90;;;;;;;;;;5074427;28;20854;-63
2021/03/24 11:27:15;;;;;;;16.17;12.27;;;;;;;;;;5072739;28;20100;-62
2021/03/24 11:29:54;;;;;;;11.20;7.35;;;;;;;;;;5071962;28;20906;-63
2021/03/24 11:32:42;;;;;;;11.65;7.50;;;;;;;;;;5070347;28;20028;-62
2021/03/24 11:35:22;;;;;;;15.70;11.95;;;;;;;;;;5073872;28;20106;-62
2021/03/24 11:37:51;;;;;;;10.27;7.63;;;;;;;;;;5054282;28;20069;-62
2021/03/24 11:40:25;;;;;;;16.70;12.20;;;;;;;;;;5057002;28;20024;-62
2021/03/24 11:43:00;;;;;;;16.00;12.75;;;;;;;;;;5065873;28;20127;-63
2021/03/24 11:45:27;;;;;;;16.80;12.55;;;;;;;;;;5057025;28;20024;-62
2021/03/24 11:48:25;;;;;;;10.38;8.02;;;;;;;;;;5071916;28;20033;-62
2021/03/24 11:50:56;;;;;;;12.07;8.23;;;;;;;;;;5076430;28;20065;-62
2021/03/24 11:53:35;;;;;;;15.48;11.65;;;;;;;;;;5062531;28;20040;-62
2021/03/24 11:56:11;;;;;;;11.20;8.70;;;;;;;;;;5058404;28;20094;-62
2021/03/24 11:58:37;;;;;;;10.75;8.73;;;;;;;;;;5071321;28;20854;-63
2021/03/24 12:01:17;;;;;;;11.23;8.45;;;;;;;;;;5075334;28;20033;-63
2021/03/24 12:03:55;;;;;;;15.65;12.10;;;;;;;;;;5074424;28;20043;-62
2021/03/24 12:06:45;;;;;;;16.60;12.73;;;;;;;;;;5072213;28;20039;-62
2021/03/24 12:09:31;;;;;;;12.18;8.18;;;;;;;;;;5059182;28;20515;-62
2021/03/24 12:12:23;;;;;;;11.60;8.20;;;;;;;;;;5080432;28;20538;-62
2021/03/24 12:15:05;;;;;;;8.60;6.35;;;;;;;;;;5071952;28;20059;-62
2021/03/24 12:17:35;;;;;;;14.63;11.70;;;;;;;;;;5071797;28;20426;-62
2021/03/24 12:20:08;;;;;;;14.27;11.20;;;;;;;;;;5058129;28;20491;-62
2021/03/24 12:22:34;;;;;;;15.85;11.75;;;;;;;;;;5073222;28;20028;-67
2021/03/24 12:25:17;;;;;;;15.45;11.88;;;;;;;;;;5073633;28;20403;-62
2021/03/24 12:27:44;;;;;;;14.82;11.45;;;;;;;;;;5065505;28;20033;-62
2021/03/24 12:30:37;;;;;;;14.57;11.10;;;;;;;;;;5056164;28;20055;-62
2021/03/24 12:33:15;;;;;;;15.05;11.85;;;;;;;;;;5070780;28;20179;-62
2021/03/24 12:35:44;;;;;;;15.65;11.45;;;;;;;;;;5072448;28;20025;-67
2021/03/24 12:38:15;;;;;;;15.88;11.70;;;;;;;;;;5053418;28;20083;-62
2021/03/24 12:40:48;;;;;;;16.75;12.13;;;;;;;;;;5072063;28;20930;-62
2021/03/24 12:43:21;;;;;;;11.50;8.50;;;;;;;;;;5071642;28;20097;-63
2021/03/24 12:45:47;;;;;;;12.77;8.98;;;;;;;;;;5072284;28;20040;-62
2021/03/24 12:48:13;;;;;;;15.05;11.55;;;;;;;;;;5070663;28;20040;-62
2021/03/24 12:51:00;;;;;;;14.43;11.65;;;;;;;;;;5072541;28;20041;-62
2021/03/24 12:53:42;;;;;;;14.07;11.00;;;;;;;;;;5077243;28;20056;-62
2021/03/24 12:56:20;;;;;;;14.40;11.32;;;;;;;;;;5072226;28;20031;-62
2021/03/24 12:58:47;;;;;;;14.65;11.43;;;;;;;;;;5074826;28;20029;-62
2021/03/24 13:01:29;;;;;;;15.68;11.88;;;;;;;;;;5072978;28;20079;-62
2021/03/24 13:03:54;;;;;;;14.60;10.77;;;;;;;;;;5074221;28;20040;-62
2021/03/24 13:06:47;;;;;;;14.25;10.52;;;;;;;;;;5072371;28;20048;-62
2021/03/24 13:09:31;;;;;;;17.00;13.80;;;;;;;;;;5074641;28;20045;-62
2021/03/24 13:12:27;;;;;;;10.73;8.55;;;;;;;;;;5073569;28;20071;-62
2021/03/24 13:15:16;;;;;;;11.32;8.73;;;;;;;;;;5075378;28;20449;-62
2021/03/24 13:18:06;;;;;;;10.32;8.25;;;;;;;;;;5056068;28;20801;-62
2021/03/24 13:20:40;;;;;;;15.70;11.52;;;;;;;;;;5073004;28;20178;-62
2021/03/24 13:23:22;;;;;;;14.52;11.18;;;;;;;;;;5080858;28;20033;-62
2021/03/24 13:25:51;;;;;;;13.40;10.88;;;;;;;;;;5081913;28;20509;-60
2021/03/24 13:28:26;;;;;;;15.95;11.60;;;;;;;;;;5055224;28;20392;-60
2021/03/24 13:30:54;;;;;;;14.68;11.70;;;;;;;;;;5073707;28;20159;-60
2021/03/24 13:33:27;;;;;;;14.23;10.90;;;;;;;;;;5070737;28;20494;-61
2021/03/24 13:35:55;;;;;;;15.77;11.18;;;;;;;;;;5060133;28;20037;-60
2021/03/24 13:38:37;;;;;;;15.75;11.55;;;;;;;;;;5053670;28;20127;-61
2021/03/24 13:41:03;;;;;;;15.15;11.02;;;;;;;;;;5051769;28;20512;-61
2021/03/24 13:43:31;;;;;;;13.98;11.02;;;;;;;;;;5054317;28;20045;-61
2021/03/24 13:45:58;;;;;;;13.95;10.13;;;;;;;;;;5053939;28;20739;-61
2021/03/24 13:48:26;;;;;;;15.10;10.73;;;;;;;;;;5054871;28;20037;-61
2021/03/24 13:50:56;;;;;;;14.50;10.30;;;;;;;;;;5070512;28;20134;-61
2021/03/24 13:53:47;;;;;;;17.70;11.68;;;;;;;;;;5068327;28;20043;-61
2021/03/24 13:56:49;;;;;;;13.10;10.10;;;;;;;;;;5074801;28;20037;-60
2021/03/24 13:59:25;;;;;;;13.90;10.73;;;;;;;;;;5075392;28;20039;-61
2021/03/24 14:02:15;;;;;;;12.95;9.85;;;;;;;;;;5074209;28;20040;-60
2021/03/24 14:05:08;;;;;;;14.02;10.80;;;;;;;;;;5075639;28;20037;-60
2021/03/24 14:07:42;;;;;;;13.95;10.00;;;;;;;;;;5072867;28;20049;-62
2021/03/24 14:10:30;;;;;;;15.15;10.65;;;;;;;;;;5072756;28;20044;-61
2021/03/24 14:13:03;;;;;;;14.75;10.63;;;;;;;;;;5074459;28;20037;-61
2021/03/24 14:16:02;;;;;;;13.98;10.18;;;;;;;;;;5072704;28;20072;-61
2021/03/24 14:18:50;;;;;;;12.85;9.85;;;;;;;;;;5074289;28;20554;-61
2021/03/24 14:21:32;;;;;;;14.05;10.57;;;;;;;;;;5074685;28;20033;-62
2021/03/24 14:24:02;;;;;;;14.43;10.13;;;;;;;;;;5073012;28;20106;-62
2021/03/24 14:26:43;;;;;;;13.90;10.52;;;;;;;;;;5073615;28;20040;-62
2021/03/24 14:29:34;;;;;;;13.25;9.60;;;;;;;;;;5068916;28;20938;-62
2021/03/24 14:32:20;;;;;;;14.15;10.45;;;;;;;;;;5076200;28;21174;-62
2021/03/24 14:35:20;;;;;;;15.30;10.93;;;;;;;;;;5075226;28;20036;-62
2021/03/24 14:38:04;;;;;;;12.18;8.68;;;;;;;;;;5065725;28;20046;-62
2021/03/24 14:40:48;;;;;;;13.25;9.15;;;;;;;;;;5077075;28;20532;-61
2021/03/24 14:43:20;;;;;;;11.88;8.77;;;;;;;;;;5083636;28;20032;-62
2021/03/24 14:45:56;;;;;;;14.77;10.18;;;;;;;;;;5083022;28;20041;-66
2021/03/24 14:48:45;;;;;;;13.80;9.60;;;;;;;;;;5072410;28;20044;-61
2021/03/24 14:51:42;;;;;;;14.45;9.65;;;;;;;;;;5075944;28;20098;-62
2021/03/24 14:54:16;;;;;;;14.75;9.43;;;;;;;;;;5073584;28;20487;-62
2021/03/24 14:56:42;;;;;;;12.90;9.10;;;;;;;;;;5075203;28;20111;-62
2021/03/24 14:59:34;;;;;;;14.52;9.15;;;;;;;;;;5056766;28;20039;-62
2021/03/24 15:02:28;;;;;;;12.80;9.32;;;;;;;;;;5075604;28;21200;-61
2021/03/24 15:04:55;;;;;;;13.02;9.55;;;;;;;;;;5074961;28;20041;-62
2021/03/24 15:07:29;;;;;;;16.42;10.95;;;;;;;;;;5074826;28;20031;-61
2021/03/24 15:10:23;;;;;;;14.40;10.18;;;;;;;;;;5075905;28;20055;-62
2021/03/24 15:13:00;;;;;;;14.30;9.50;;;;;;;;;;5056248;28;20124;-62
2021/03/24 15:15:30;;;;;;;12.80;8.68;;;;;;;;;;5065929;28;20036;-61
2021/03/24 15:18:01;;;;;;;13.75;8.80;;;;;;;;;;5082383;28;20036;-62